createdAt,value
2017-06-29T00:01:24.101Z,19.80
2017-06-29T00:03:52.500Z,19.80
2017-06-29T00:06:20.934Z,19.80
2017-06-29T00:08:49.362Z,19.70
2017-06-29T00:11:17.786Z,19.80
2017-06-29T00:13:47.127Z,19.90
2017-06-29T00:16:15.551Z,20.00
2017-06-29T00:18:43.996Z,20.00
2017-06-29T00:21:12.422Z,20.00
2017-06-29T00:23:40.848Z,20.10
2017-06-29T00:26:09.423Z,20.10
2017-06-29T00:28:38.603Z,20.10
2017-06-29T00:31:07.785Z,20.10
2017-06-29T00:33:36.203Z,20.10
2017-06-29T00:36:04.635Z,20.10
2017-06-29T00:38:33.063Z,20.10
2017-06-29T00:41:01.507Z,20.10
2017-06-29T00:43:29.916Z,20.10
2017-06-29T00:45:58.337Z,20.20
2017-06-29T00:48:26.769Z,20.10
2017-06-29T00:50:56.085Z,20.10
2017-06-29T00:53:24.489Z,20.10
2017-06-29T00:55:52.904Z,20.10
2017-06-29T00:58:22.097Z,20.10
2017-06-29T01:00:50.512Z,20.10
2017-06-29T01:03:18.956Z,20.10
2017-06-29T01:05:47.359Z,20.10
2017-06-29T01:08:16.535Z,20.00
2017-06-29T01:10:44.957Z,20.00
2017-06-29T01:13:13.364Z,20.00
2017-06-29T01:15:41.805Z,20.00
2017-06-29T01:18:10.217Z,20.00
2017-06-29T01:20:38.864Z,20.00
2017-06-29T01:23:07.280Z,20.10
2017-06-29T01:25:35.703Z,20.10
2017-06-29T01:28:04.806Z,20.10
2017-06-29T01:30:33.625Z,20.10
2017-06-29T01:33:02.480Z,20.10
2017-06-29T01:35:31.664Z,20.00
2017-06-29T01:38:00.832Z,20.00
2017-06-29T01:40:28.563Z,20.00
2017-06-29T01:42:56.964Z,20.00
2017-06-29T01:45:25.435Z,20.00
2017-06-29T01:47:53.865Z,19.90
2017-06-29T01:50:22.698Z,20.00
2017-06-29T01:52:51.116Z,20.00
2017-06-29T01:55:18.840Z,20.00
2017-06-29T01:57:46.576Z,20.00
2017-06-29T02:00:14.985Z,19.90
2017-06-29T02:02:43.401Z,20.00
2017-06-29T02:05:11.469Z,20.00
2017-06-29T02:07:39.164Z,20.00
2017-06-29T02:10:07.604Z,20.00
2017-06-29T02:12:36.016Z,19.90
2017-06-29T02:15:05.187Z,20.00
2017-06-29T02:17:33.695Z,19.90
2017-06-29T02:20:02.117Z,19.90
2017-06-29T02:22:30.563Z,19.80
2017-06-29T02:24:58.971Z,19.80
2017-06-29T02:27:27.388Z,19.80
2017-06-29T02:29:55.828Z,19.70
2017-06-29T02:32:24.263Z,19.70
2017-06-29T02:34:53.667Z,19.70
2017-06-29T02:37:22.845Z,19.70
2017-06-29T02:39:51.265Z,19.70
2017-06-29T02:42:19.688Z,19.80
2017-06-29T02:44:48.103Z,19.80
2017-06-29T02:47:17.516Z,19.80
2017-06-29T02:49:45.925Z,19.80
2017-06-29T02:52:14.329Z,19.80
2017-06-29T02:54:42.751Z,19.90
2017-06-29T02:57:11.161Z,19.90
2017-06-29T02:59:39.605Z,19.90
2017-06-29T03:02:08.016Z,19.90
2017-06-29T03:04:36.437Z,19.90
2017-06-29T03:07:05.544Z,19.90
2017-06-29T03:09:34.731Z,19.90
2017-06-29T03:12:04.151Z,19.90
2017-06-29T03:14:32.560Z,19.90
2017-06-29T03:17:00.965Z,19.90
2017-06-29T03:19:29.400Z,19.90
2017-06-29T03:21:57.832Z,19.90
2017-06-29T03:24:26.444Z,20.00
2017-06-29T03:26:55.612Z,20.00
2017-06-29T03:29:24.024Z,20.00
2017-06-29T03:31:52.463Z,20.00
2017-06-29T03:34:20.860Z,20.00
2017-06-29T03:36:50.284Z,19.90
2017-06-29T03:39:18.696Z,19.90
2017-06-29T03:41:47.145Z,20.00
2017-06-29T03:44:15.571Z,20.00
2017-06-29T03:46:44.004Z,20.00
2017-06-29T03:49:12.572Z,19.90
2017-06-29T03:51:41.746Z,19.90
2017-06-29T03:54:10.161Z,19.90
2017-06-29T03:56:38.604Z,19.90
2017-06-29T03:59:07.025Z,20.00
2017-06-29T04:01:35.704Z,19.90
2017-06-29T04:04:04.127Z,20.00
2017-06-29T04:06:32.339Z,19.90
2017-06-29T04:09:01.651Z,20.00
2017-06-29T04:11:30.130Z,20.00
2017-06-29T04:13:58.539Z,20.00
2017-06-29T04:16:26.958Z,20.00
2017-06-29T04:18:55.376Z,19.90
2017-06-29T04:21:23.827Z,19.90
2017-06-29T04:23:53.015Z,19.90
2017-06-29T04:26:21.419Z,19.90
2017-06-29T04:28:49.841Z,20.00
2017-06-29T04:31:18.282Z,19.90
2017-06-29T04:33:46.965Z,19.90
2017-06-29T04:36:16.148Z,19.90
2017-06-29T04:38:45.331Z,19.90
2017-06-29T04:41:13.756Z,19.90
2017-06-29T04:43:42.177Z,19.90
2017-06-29T04:46:10.655Z,19.90
2017-06-29T04:48:39.087Z,19.90
2017-06-29T04:51:07.495Z,19.90
2017-06-29T04:53:35.992Z,20.00
2017-06-29T04:56:04.404Z,19.90
2017-06-29T04:58:33.768Z,20.00
2017-06-29T05:01:02.191Z,20.00
2017-06-29T05:03:30.612Z,19.90
2017-06-29T05:05:59.161Z,19.90
2017-06-29T05:08:27.567Z,20.00
2017-06-29T05:10:56.664Z,20.00
2017-06-29T05:13:25.092Z,20.00
2017-06-29T05:15:54.285Z,20.00
2017-06-29T05:18:23.616Z,20.10
2017-06-29T05:20:52.028Z,20.10
2017-06-29T05:23:20.251Z,20.10
2017-06-29T05:25:48.680Z,20.10
2017-06-29T05:28:17.140Z,20.10
2017-06-29T05:30:45.805Z,20.20
2017-06-29T05:33:14.253Z,20.20
2017-06-29T05:35:42.784Z,20.20
2017-06-29T05:38:11.204Z,20.20
2017-06-29T05:40:39.607Z,20.20
2017-06-29T05:43:08.911Z,20.30
2017-06-29T05:45:38.095Z,20.40
2017-06-29T05:48:07.263Z,20.30
2017-06-29T05:50:35.692Z,20.30
2017-06-29T05:53:04.102Z,20.30
2017-06-29T05:55:32.521Z,20.20
2017-06-29T05:58:00.925Z,20.10
2017-06-29T06:00:29.351Z,20.20
2017-06-29T06:02:57.772Z,20.20
2017-06-29T06:05:26.953Z,20.20
2017-06-29T06:07:55.777Z,20.20
2017-06-29T06:10:24.184Z,20.20
2017-06-29T06:12:52.601Z,20.30
2017-06-29T06:15:21.720Z,20.20
2017-06-29T06:17:50.136Z,20.20
2017-06-29T06:20:18.576Z,20.30
2017-06-29T06:22:47.051Z,20.30
2017-06-29T06:25:16.219Z,20.20
2017-06-29T06:27:44.657Z,20.30
2017-06-29T06:30:13.057Z,20.20
2017-06-29T06:32:41.543Z,20.30
2017-06-29T06:35:09.968Z,20.20
2017-06-29T06:37:38.394Z,20.20
2017-06-29T06:40:06.815Z,20.20
2017-06-29T06:42:35.999Z,20.20
2017-06-29T06:45:05.311Z,20.20
2017-06-29T06:47:34.478Z,20.30
2017-06-29T06:50:02.892Z,20.20
2017-06-29T06:52:32.084Z,20.30
2017-06-29T06:55:01.287Z,20.30
2017-06-29T06:57:30.913Z,20.30
2017-06-29T06:59:59.692Z,20.30
2017-06-29T07:02:28.165Z,20.40
2017-06-29T07:04:56.586Z,20.50
2017-06-29T07:07:24.817Z,20.50
2017-06-29T07:09:54.012Z,20.40
2017-06-29T07:12:22.070Z,20.40
2017-06-29T07:14:51.256Z,20.40
2017-06-29T07:17:19.671Z,20.40
2017-06-29T07:19:48.076Z,20.50
2017-06-29T07:22:16.509Z,20.50
2017-06-29T07:24:45.694Z,20.50
2017-06-29T07:27:14.869Z,20.50
2017-06-29T07:29:43.302Z,20.40
2017-06-29T07:32:11.712Z,20.30
2017-06-29T07:34:40.352Z,20.30
2017-06-29T07:37:08.776Z,20.30
2017-06-29T07:39:37.183Z,20.40
2017-06-29T07:42:05.610Z,20.50
2017-06-29T07:44:34.033Z,20.50
2017-06-29T07:47:02.664Z,20.50
2017-06-29T07:49:31.077Z,20.60
2017-06-29T07:51:59.486Z,20.60
2017-06-29T07:54:28.680Z,20.70
2017-06-29T07:56:57.855Z,20.70
2017-06-29T07:59:26.495Z,20.70
2017-06-29T08:01:54.908Z,20.70
2017-06-29T08:04:23.324Z,20.80
2017-06-29T08:06:52.517Z,20.80
2017-06-29T08:09:20.946Z,20.80
2017-06-29T08:11:49.412Z,20.90
2017-06-29T08:14:17.643Z,21.00
2017-06-29T08:16:46.156Z,20.90
2017-06-29T08:19:14.579Z,20.90
2017-06-29T08:21:42.997Z,21.00
2017-06-29T08:24:12.337Z,21.10
2017-06-29T08:26:40.762Z,21.10
2017-06-29T08:29:09.180Z,21.20
2017-06-29T08:31:37.602Z,21.20
2017-06-29T08:34:06.013Z,21.20
2017-06-29T08:36:35.219Z,21.40
2017-06-29T08:39:03.707Z,21.40
2017-06-29T08:41:32.128Z,21.40
2017-06-29T08:44:00.544Z,21.40
2017-06-29T08:46:29.717Z,21.40
2017-06-29T08:48:58.154Z,21.40
2017-06-29T08:51:26.567Z,21.40
2017-06-29T08:53:54.983Z,21.50
2017-06-29T08:56:24.178Z,21.70
2017-06-29T08:58:53.395Z,21.70
2017-06-29T09:01:22.067Z,21.70
2017-06-29T09:03:50.476Z,21.80
2017-06-29T09:06:18.884Z,21.90
2017-06-29T09:08:47.322Z,21.90
2017-06-29T09:11:15.743Z,21.80
2017-06-29T09:13:44.177Z,21.70
2017-06-29T09:16:12.650Z,21.60
2017-06-29T09:18:41.365Z,21.70
2017-06-29T09:21:09.767Z,21.80
2017-06-29T09:23:38.177Z,21.80
2017-06-29T09:26:07.366Z,21.90
2017-06-29T09:28:36.564Z,21.90
2017-06-29T09:31:05.804Z,21.90
2017-06-29T09:33:34.215Z,21.90
2017-06-29T09:36:02.627Z,22.00
2017-06-29T09:38:31.811Z,22.10
2017-06-29T09:41:01.009Z,22.20
2017-06-29T09:43:30.340Z,22.30
2017-06-29T09:45:58.772Z,22.30
2017-06-29T09:48:27.515Z,22.20
2017-06-29T09:50:55.936Z,22.20
2017-06-29T09:53:24.351Z,22.30
2017-06-29T09:55:52.865Z,22.40
2017-06-29T09:58:21.288Z,22.30
2017-06-29T10:00:49.778Z,22.10
2017-06-29T10:03:18.940Z,22.10
2017-06-29T10:05:47.352Z,22.10
2017-06-29T10:08:16.545Z,22.30
2017-06-29T10:10:45.731Z,22.50
2017-06-29T10:13:14.435Z,22.50
2017-06-29T10:15:43.619Z,22.60
2017-06-29T10:18:12.820Z,22.70
2017-06-29T10:20:42.012Z,22.70
2017-06-29T10:23:10.462Z,22.70
2017-06-29T10:25:38.900Z,22.80
2017-06-29T10:28:07.337Z,22.70
2017-06-29T10:30:35.759Z,22.60
2017-06-29T10:33:04.224Z,22.60
2017-06-29T10:35:33.623Z,22.60
2017-06-29T10:38:02.320Z,22.70
2017-06-29T10:40:31.528Z,22.80
2017-06-29T10:42:59.963Z,22.80
2017-06-29T10:45:28.420Z,22.80
2017-06-29T10:47:56.820Z,22.90
2017-06-29T10:50:26.252Z,23.10
2017-06-29T10:52:54.659Z,23.10
2017-06-29T10:55:23.147Z,23.20
2017-06-29T10:57:51.581Z,23.20
2017-06-29T11:00:20.747Z,23.20
2017-06-29T11:02:49.224Z,23.20
2017-06-29T11:05:17.645Z,23.30
2017-06-29T11:07:46.808Z,23.40
2017-06-29T11:10:15.387Z,23.40
2017-06-29T11:12:43.804Z,23.50
2017-06-29T11:15:12.495Z,23.30
2017-06-29T11:17:40.905Z,23.30
2017-06-29T11:20:09.320Z,23.50
2017-06-29T11:22:37.750Z,23.60
2017-06-29T11:25:06.162Z,23.70
2017-06-29T11:27:34.595Z,23.70
2017-06-29T11:30:03.028Z,23.90
2017-06-29T11:32:31.645Z,24.00
2017-06-29T11:35:00.909Z,24.30
2017-06-29T11:37:29.317Z,24.20
2017-06-29T11:39:58.512Z,24.30
2017-06-29T11:42:27.699Z,24.30
2017-06-29T11:44:56.940Z,24.40
2017-06-29T11:47:25.355Z,24.30
2017-06-29T11:49:53.772Z,24.30
2017-06-29T11:52:22.697Z,24.20
2017-06-29T11:54:51.565Z,24.00
2017-06-29T11:57:20.395Z,23.90
2017-06-29T11:59:48.885Z,23.90
2017-06-29T12:02:17.596Z,23.90
2017-06-29T12:04:46.034Z,24.00
2017-06-29T12:07:14.451Z,24.00
2017-06-29T12:09:42.883Z,24.20
2017-06-29T12:12:11.291Z,24.30
2017-06-29T12:14:39.895Z,24.40
2017-06-29T12:17:08.468Z,24.50
2017-06-29T12:19:37.769Z,24.40
2017-06-29T12:22:06.985Z,24.40
2017-06-29T12:24:35.464Z,24.40
2017-06-29T12:27:04.294Z,24.50
2017-06-29T12:29:32.706Z,24.40
2017-06-29T12:32:02.250Z,24.30
2017-06-29T12:34:30.679Z,24.30
2017-06-29T12:36:59.121Z,24.30
2017-06-29T12:39:27.765Z,24.30
2017-06-29T12:41:56.384Z,24.40
2017-06-29T12:44:26.719Z,24.30
2017-06-29T12:46:55.364Z,24.20
2017-06-29T12:49:23.788Z,24.00
2017-06-29T12:51:52.439Z,23.90
2017-06-29T12:54:20.878Z,23.80
2017-06-29T12:56:50.506Z,23.80
2017-06-29T12:59:18.983Z,23.80
2017-06-29T13:01:47.445Z,23.90
2017-06-29T13:04:16.960Z,24.10
2017-06-29T13:06:46.147Z,24.20
2017-06-29T13:09:15.474Z,24.30
2017-06-29T13:11:43.971Z,24.30
2017-06-29T13:14:12.674Z,24.40
2017-06-29T13:16:41.115Z,24.50
2017-06-29T13:19:09.553Z,24.50
2017-06-29T13:21:38.017Z,24.60
2017-06-29T13:24:06.468Z,24.60
2017-06-29T13:26:35.032Z,24.50
2017-06-29T13:29:03.479Z,24.50
2017-06-29T13:31:33.965Z,24.60
2017-06-29T13:34:02.618Z,24.60
2017-06-29T13:36:31.379Z,24.70
2017-06-29T13:38:59.897Z,24.70
2017-06-29T13:41:28.500Z,24.70
2017-06-29T13:43:56.294Z,24.80
2017-06-29T13:46:26.256Z,24.80
2017-06-29T13:48:54.699Z,24.80
2017-06-29T13:51:23.302Z,24.80
2017-06-29T13:53:51.835Z,24.70
2017-06-29T13:56:20.419Z,24.80
2017-06-29T13:58:48.848Z,24.90
2017-06-29T14:01:17.329Z,25.00
2017-06-29T14:03:45.782Z,25.00
2017-06-29T14:06:15.022Z,25.00
2017-06-29T14:08:43.862Z,24.90
2017-06-29T14:11:12.308Z,24.90
2017-06-29T14:13:40.888Z,24.80
2017-06-29T14:16:09.616Z,24.70
2017-06-29T14:18:39.067Z,24.60
2017-06-29T14:21:07.617Z,24.60
2017-06-29T14:23:36.067Z,24.50
2017-06-29T14:26:04.492Z,24.50
2017-06-29T14:28:32.931Z,24.40
2017-06-29T14:31:01.430Z,24.40
2017-06-29T14:33:30.756Z,24.40
2017-06-29T14:35:59.189Z,24.40
2017-06-29T14:38:27.637Z,24.40
2017-06-29T14:40:56.100Z,24.50
2017-06-29T14:43:24.549Z,24.50
2017-06-29T14:45:53.031Z,24.30
2017-06-29T14:48:21.456Z,24.20
2017-06-29T14:50:52.297Z,24.20
2017-06-29T14:53:20.746Z,24.10
2017-06-29T14:55:49.187Z,24.20
2017-06-29T14:58:18.432Z,24.00
2017-06-29T15:00:46.882Z,24.00
2017-06-29T15:03:16.074Z,23.90
2017-06-29T15:05:45.437Z,23.90
2017-06-29T15:08:13.851Z,23.90
2017-06-29T15:10:43.077Z,23.80
2017-06-29T15:13:11.519Z,23.80
2017-06-29T15:15:40.763Z,23.60
2017-06-29T15:18:09.197Z,23.60
2017-06-29T15:20:38.454Z,23.20
2017-06-29T15:23:06.901Z,23.20
2017-06-29T15:25:35.342Z,23.00
2017-06-29T15:28:03.856Z,23.00
2017-06-29T15:30:32.302Z,22.90
2017-06-29T15:33:00.739Z,22.90
2017-06-29T15:35:29.201Z,23.00
2017-06-29T15:37:57.648Z,23.10
2017-06-29T15:40:26.076Z,23.20
2017-06-29T15:42:54.528Z,23.30
2017-06-29T15:45:22.968Z,23.30
2017-06-29T15:47:51.409Z,23.30
2017-06-29T15:50:19.861Z,23.30
2017-06-29T15:52:48.627Z,23.40
2017-06-29T15:55:17.839Z,23.30
2017-06-29T15:57:47.049Z,23.20
2017-06-29T16:00:15.480Z,23.20
2017-06-29T16:02:43.916Z,23.20
2017-06-29T16:05:12.380Z,23.10
2017-06-29T16:07:40.820Z,23.00
2017-06-29T16:10:09.269Z,22.90
2017-06-29T16:12:37.722Z,22.90
2017-06-29T16:15:06.151Z,22.80
2017-06-29T16:17:34.576Z,22.60
2017-06-29T16:20:03.027Z,22.50
2017-06-29T16:22:31.475Z,22.50
2017-06-29T16:24:59.902Z,22.40
2017-06-29T16:27:29.133Z,22.10
2017-06-29T16:29:57.565Z,22.10
2017-06-29T16:32:25.832Z,21.70
2017-06-29T16:34:54.204Z,21.20
2017-06-29T16:37:22.646Z,21.00
2017-06-29T16:39:51.159Z,20.80
2017-06-29T16:42:19.613Z,20.70
2017-06-29T16:44:48.047Z,20.50
2017-06-29T16:47:17.253Z,20.30
2017-06-29T16:49:46.474Z,20.10
2017-06-29T16:52:14.901Z,20.10
2017-06-29T16:54:43.341Z,20.10
2017-06-29T16:57:11.782Z,20.00
2017-06-29T16:59:40.964Z,19.80
2017-06-29T17:02:09.389Z,19.90
2017-06-29T17:04:37.835Z,19.80
2017-06-29T17:07:06.267Z,19.80
2017-06-29T17:09:34.708Z,19.70
2017-06-29T17:12:03.160Z,19.70
2017-06-29T17:14:31.599Z,19.70
2017-06-29T17:17:00.015Z,19.60
2017-06-29T17:19:28.473Z,19.60
2017-06-29T17:21:56.911Z,19.60
2017-06-29T17:24:25.336Z,19.70
2017-06-29T17:26:53.774Z,19.70
2017-06-29T17:29:22.212Z,19.70
2017-06-29T17:31:50.643Z,19.60
2017-06-29T17:34:19.107Z,19.60
2017-06-29T17:36:47.557Z,19.50
2017-06-29T17:39:16.766Z,19.50
2017-06-29T17:41:46.066Z,19.50
2017-06-29T17:44:15.253Z,19.50
2017-06-29T17:46:44.528Z,19.50
2017-06-29T17:49:12.980Z,19.50
2017-06-29T17:51:41.412Z,19.50
2017-06-29T17:54:10.674Z,19.50
2017-06-29T17:56:39.085Z,19.50
2017-06-29T17:59:08.287Z,19.50
2017-06-29T18:01:37.475Z,19.50
2017-06-29T18:04:06.695Z,19.40
2017-06-29T18:06:35.118Z,19.40
2017-06-29T18:09:03.204Z,19.40
2017-06-29T18:11:31.680Z,19.30
2017-06-29T18:14:00.124Z,19.30
2017-06-29T18:16:28.547Z,19.30
2017-06-29T18:18:57.011Z,19.30
2017-06-29T18:21:25.431Z,19.30
2017-06-29T18:23:54.638Z,19.40
2017-06-29T18:26:23.100Z,19.40
2017-06-29T18:28:52.296Z,19.20
2017-06-29T18:31:21.483Z,19.20
2017-06-29T18:33:49.943Z,19.20
2017-06-29T18:36:18.391Z,19.10
2017-06-29T18:38:46.831Z,19.10
2017-06-29T18:41:16.065Z,19.20
2017-06-29T18:43:44.497Z,19.20
2017-06-29T18:46:12.931Z,19.20
2017-06-29T18:48:41.364Z,19.10
2017-06-29T18:51:09.792Z,19.20
2017-06-29T18:53:38.232Z,19.10
2017-06-29T18:56:07.857Z,19.00
2017-06-29T18:58:36.297Z,19.00
2017-06-29T19:01:04.737Z,19.00
2017-06-29T19:03:33.196Z,19.00
2017-06-29T19:06:01.654Z,18.90
2017-06-29T19:08:30.852Z,18.90
2017-06-29T19:11:00.068Z,18.80
2017-06-29T19:13:28.479Z,18.80
2017-06-29T19:15:56.729Z,18.90
2017-06-29T19:18:25.199Z,18.90
2017-06-29T19:20:54.571Z,18.80
2017-06-29T19:23:23.073Z,18.90
2017-06-29T19:25:52.314Z,18.70
2017-06-29T19:28:20.762Z,18.70
2017-06-29T19:30:49.188Z,18.70
2017-06-29T19:33:17.683Z,18.70
2017-06-29T19:35:46.103Z,18.70
2017-06-29T19:38:14.573Z,18.60
2017-06-29T19:40:43.042Z,18.60
2017-06-29T19:43:12.247Z,18.60
2017-06-29T19:45:41.439Z,18.70
2017-06-29T19:48:10.692Z,18.70
2017-06-29T19:50:39.124Z,18.60
2017-06-29T19:53:07.563Z,18.70
2017-06-29T19:55:35.649Z,18.60
2017-06-29T19:58:04.855Z,18.60
2017-06-29T20:00:34.191Z,18.50
2017-06-29T20:03:02.653Z,18.50
2017-06-29T20:05:31.085Z,18.50
2017-06-29T20:07:59.530Z,18.40
2017-06-29T20:10:28.005Z,18.40
2017-06-29T20:12:56.453Z,18.30
2017-06-29T20:15:25.663Z,18.30
2017-06-29T20:17:54.895Z,18.20
2017-06-29T20:20:23.361Z,18.20
2017-06-29T20:22:51.416Z,18.20
2017-06-29T20:25:19.885Z,18.20
2017-06-29T20:27:49.100Z,18.20
2017-06-29T20:30:17.548Z,18.20
2017-06-29T20:32:46.036Z,18.10
2017-06-29T20:35:15.144Z,18.10
2017-06-29T20:37:43.651Z,18.10
2017-06-29T20:40:12.097Z,18.10
2017-06-29T20:42:41.297Z,18.10
2017-06-29T20:45:10.502Z,18.10
2017-06-29T20:47:38.940Z,18.00
2017-06-29T20:50:07.456Z,18.10
2017-06-29T20:52:35.896Z,18.10
2017-06-29T20:55:04.356Z,18.20
2017-06-29T20:57:32.783Z,18.20
2017-06-29T21:00:01.975Z,18.30
2017-06-29T21:02:31.202Z,18.20
2017-06-29T21:04:59.883Z,18.20
2017-06-29T21:07:28.356Z,18.20
2017-06-29T21:09:56.834Z,18.10
2017-06-29T21:12:25.302Z,18.10
2017-06-29T21:14:53.723Z,18.00
2017-06-29T21:17:22.195Z,17.90
2017-06-29T21:19:50.627Z,18.00
2017-06-29T21:22:19.056Z,18.00
2017-06-29T21:24:47.500Z,18.00
2017-06-29T21:27:16.691Z,18.00
2017-06-29T21:29:45.894Z,18.10
2017-06-29T21:32:15.067Z,18.10
2017-06-29T21:34:43.507Z,18.10
2017-06-29T21:37:11.927Z,18.20
2017-06-29T21:39:40.188Z,18.20
2017-06-29T21:42:08.608Z,18.30
2017-06-29T21:44:37.800Z,18.20
2017-06-29T21:47:07.022Z,18.20
2017-06-29T21:49:35.443Z,18.10
2017-06-29T21:52:03.878Z,18.20
2017-06-29T21:54:32.349Z,18.20
2017-06-29T21:57:00.767Z,18.20
2017-06-29T21:59:29.184Z,18.30
2017-06-29T22:01:58.397Z,18.30
2017-06-29T22:04:27.608Z,18.30
2017-06-29T22:06:56.045Z,18.30
2017-06-29T22:09:24.559Z,18.30
2017-06-29T22:11:52.991Z,18.30
2017-06-29T22:14:21.405Z,18.30
2017-06-29T22:16:50.605Z,18.30
2017-06-29T22:19:19.797Z,18.40
2017-06-29T22:21:48.978Z,18.30
2017-06-29T22:24:17.412Z,18.40
2017-06-29T22:26:45.836Z,18.30
2017-06-29T22:29:14.267Z,18.30
2017-06-29T22:31:42.711Z,18.30
2017-06-29T22:34:11.891Z,18.20
2017-06-29T22:36:40.295Z,18.20
2017-06-29T22:39:08.782Z,18.20
2017-06-29T22:41:37.165Z,18.20
2017-06-29T22:44:05.580Z,18.20
2017-06-29T22:46:34.015Z,18.30
2017-06-29T22:49:02.424Z,18.30
2017-06-29T22:51:30.855Z,18.30
2017-06-29T22:54:00.072Z,18.40
2017-06-29T22:56:28.482Z,18.40
2017-06-29T22:58:56.908Z,18.40
2017-06-29T23:01:26.118Z,18.40
2017-06-29T23:03:55.300Z,18.40
2017-06-29T23:06:24.476Z,18.40
2017-06-29T23:08:52.929Z,18.30
2017-06-29T23:11:21.338Z,18.40
2017-06-29T23:13:49.747Z,18.40
2017-06-29T23:16:18.177Z,18.40
2017-06-29T23:18:46.594Z,18.40
2017-06-29T23:21:15.780Z,18.40
2017-06-29T23:23:44.212Z,18.30
2017-06-29T23:26:12.620Z,18.40
2017-06-29T23:28:41.037Z,18.40
2017-06-29T23:31:10.252Z,18.40
2017-06-29T23:33:38.716Z,18.40
2017-06-29T23:36:07.122Z,18.40
2017-06-29T23:38:35.568Z,18.40
2017-06-29T23:41:04.736Z,18.40
2017-06-29T23:43:33.159Z,18.30
2017-06-29T23:46:01.603Z,18.30
2017-06-29T23:48:30.021Z,18.20
2017-06-29T23:50:58.489Z,18.10
2017-06-29T23:53:26.941Z,18.10
2017-06-29T23:55:55.360Z,18.00
2017-06-29T23:58:23.788Z,18.00
